YPPD/PHE METAR and TAF weather

Enter ICAO airport designator
Station Type Date Time Source
YPPD METAR 2019/04/19 10:30 UTC NOAA

YPPD 191030Z AUTO 28010KT 9999 // NCD 29/22 Q1009 RF00.0/000.0


Station Type Date Time Source
YPPD Decoded METAR 2019/04/19 10:30 UTC NOAA

Port Hedland Pardoo, Australia (YPPD) 20-06S 119-34E 10M
Apr 19, 2019 - 06:30 AM EDT / 2019.04.19 1030 UTC
Wind: from the W (280 degrees) at 12 MPH (10 KT):0
Visibility: greater than 7 mile(s):0
Temperature: 84 F (29 C)
Dew Point: 71 F (22 C)
Relative Humidity: 65%
Pressure (altimeter): 29.80 in. Hg (1009 hPa)
ob: YPPD 191030Z AUTO 28010KT 9999 // NCD 29/22 Q1009 RF00.0/000.0
cycle: 10

Station Type Date Time Source
YPPD TAF 2019/04/19 06:37 UTC NOAA

TAF YPPD 190506Z 1906/2006 27012KT CAVOK
FM191500 17012KT CAVOK
FM192300 14014KT CAVOK

Example: see airport list